| time (UTC) | temp C | wind direction | speed KPH | gust KPH | rain 1hr cm | rain 24hr cm | rain mn cm | humidity % | barometer mb |
| 20260506015316 | 10 | 164 | 0.0 | 1.6 | 0.00 | 0.00 | 0.00 | 47 | 1008.8 |
| 20260506014812 | 10 | 150 | 0.0 | 0.0 | 0.00 | 0.00 | 0.00 | 46 | 1008.8 |
| 20260506014309 | 10 | 226 | 1.6 | 1.6 | 0.00 | 0.00 | 0.00 | 44 | 1008.7 |
| 20260506013806 | 10 | 170 | 0.0 | 1.6 | 0.00 | 0.00 | 0.00 | 45 | 1008.5 |
| 20260506013303 | 10 | 156 | 1.6 | 3.2 | 0.00 | 0.00 | 0.00 | 43 | 1008.3 |
| 20260506012800 | 10 | 276 | 1.6 | 3.2 | 0.00 | 0.00 | 0.00 | 43 | 1008.4 |
| 20260506012257 | 10 | 157 | 0.0 | 1.6 | 0.00 | 0.00 | 0.00 | 43 | 1008.2 |
| 20260506011754 | 11 | 179 | 1.6 | 3.2 | 0.00 | 0.00 | 0.00 | 43 | 1008.0 |
| 20260506011250 | 11 | 168 | 0.0 | 1.6 | 0.00 | 0.00 | 0.00 | 44 | 1008.0 |
| 20260506010748 | 11 | 260 | 1.6 | 3.2 | 0.00 | 0.00 | 0.00 | 42 | 1008.1 |
| 20260506010245 | 11 | 278 | 1.6 | 4.8 | 0.00 | 0.00 | 0.00 | 41 | 1008.1 |
| 20260506005743 | 11 | 149 | 1.6 | 3.2 | 0.00 | 0.00 | 0.00 | 41 | 1008.0 |
| 20260506005239 | 11 | 177 | 3.2 | 4.8 | 0.00 | 0.00 | 0.00 | 40 | 1008.2 |
| 20260506004735 | 11 | 283 | 3.2 | 6.4 | 0.00 | 0.00 | 0.00 | 40 | 1008.1 |
| 20260506004233 | 11 | 149 | 3.2 | 4.8 | 0.00 | 0.00 | 0.00 | 40 | 1007.8 |
| 20260506003729 | 11 | 325 | 4.8 | 9.7 | 0.00 | 0.00 | 0.00 | 38 | 1007.9 |
| 20260506003226 | 11 | 146 | 4.8 | 6.4 | 0.00 | 0.00 | 0.00 | 38 | 1007.7 |
| 20260506002721 | 11 | 210 | 6.4 | 11.3 | 0.00 | 0.00 | 0.00 | 37 | 1007.8 |
| 20260506002218 | 12 | 279 | 6.4 | 9.7 | 0.00 | 0.00 | 0.00 | 38 | 1007.6 |
| 20260506001714 | 12 | 348 | 6.4 | 12.9 | 0.00 | 0.00 | 0.00 | 37 | 1007.6 |
| 20260506001212 | 12 | 283 | 8.0 | 11.3 | 0.00 | 0.00 | 0.00 | 37 | 1007.6 |
| 20260506000708 | 12 | 350 | 8.0 | 12.9 | 0.00 | 0.00 | 0.00 | 37 | 1007.7 |
| 20260506000206 | 12 | 317 | 8.0 | 14.5 | 0.00 | 0.00 | 0.00 | 37 | 1007.8 |
| 20260505235703 | 12 | 298 | 6.4 | 11.3 | 0.00 | 0.00 | 0.00 | 38 | 1007.7 |
| 20260505235201 | 12 | 266 | 4.8 | 6.4 | 0.00 | 0.00 | 0.00 | 38 | 1007.6 |
| 20260505234657 | 12 | 266 | 3.2 | 6.4 | 0.00 | 0.00 | 0.00 | 38 | 1008.0 |
| 20260505234155 | 12 | 175 | 4.8 | 6.4 | 0.00 | 0.00 | 0.00 | 38 | 1007.9 |
| 20260505233651 | 12 | 118 | 3.2 | 14.5 | 0.00 | 0.00 | 0.00 | 38 | 1007.8 |
| 20260505233149 | 12 | 186 | 4.8 | 9.7 | 0.00 | 0.00 | 0.00 | 37 | 1007.8 |
| 20260505232646 | 12 | 193 | 1.6 | 12.9 | 0.00 | 0.00 | 0.00 | 37 | 1007.7 |
| 20260505232144 | 12 | 163 | 3.2 | 9.7 | 0.00 | 0.00 | 0.00 | 38 | 1007.8 |
| 20260505231640 | 13 | 297 | 8.0 | 16.1 | 0.00 | 0.00 | 0.00 | 35 | 1007.9 |
| 20260505231139 | 12 | 224 | 6.4 | 16.1 | 0.00 | 0.00 | 0.00 | 36 | 1007.9 |
| 20260505230637 | 12 | 319 | 6.4 | 14.5 | 0.00 | 0.00 | 0.00 | 37 | 1007.8 |
| 20260505230133 | 12 | 266 | 3.2 | 12.9 | 0.00 | 0.00 | 0.00 | 37 | 1008.0 |
| 20260505225629 | 12 | 167 | 3.2 | 6.4 | 0.00 | 0.00 | 0.00 | 38 | 1008.1 |
| 20260505225126 | 12 | 302 | 8.0 | 14.5 | 0.00 | 0.00 | 0.00 | 36 | 1007.9 |
| 20260505224622 | 12 | 256 | 4.8 | 11.3 | 0.00 | 0.00 | 0.00 | 37 | 1008.1 |
| 20260505224120 | 12 | 261 | 4.8 | 9.7 | 0.00 | 0.00 | 0.00 | 36 | 1007.9 |
| 20260505223617 | 12 | 115 | 9.7 | 12.9 | 0.00 | 0.00 | 0.00 | 35 | 1008.2 |
| 20260505223113 | 12 | 229 | 4.8 | 9.7 | 0.00 | 0.00 | 0.00 | 36 | 1008.2 |
| 20260505222609 | 12 | 195 | 6.4 | 11.3 | 0.00 | 0.00 | 0.00 | 36 | 1008.1 |
| 20260505222105 | 12 | 292 | 4.8 | 6.4 | 0.00 | 0.00 | 0.00 | 36 | 1008.2 |
| 20260505221602 | 12 | 141 | 6.4 | 17.7 | 0.00 | 0.00 | 0.00 | 36 | 1008.1 |
| 20260505221058 | 12 | 235 | 9.7 | 17.7 | 0.00 | 0.00 | 0.00 | 35 | 1008.0 |
| 20260505220556 | 12 | 242 | 6.4 | 14.5 | 0.00 | 0.00 | 0.00 | 35 | 1008.1 |
| 20260505220054 | 12 | 234 | 4.8 | 12.9 | 0.00 | 0.00 | 0.00 | 35 | 1008.1 |
| 20260505215552 | 12 | 21 | 4.8 | 11.3 | 0.00 | 0.00 | 0.00 | 34 | 1008.2 |
| 20260505215049 | 12 | 202 | 9.7 | 17.7 | 0.00 | 0.00 | 0.00 | 35 | 1008.1 |
| 20260505214547 | 12 | 340 | 3.2 | 4.8 | 0.00 | 0.00 | 0.00 | 36 | 1008.2 |
| 20260505214044 | 12 | 309 | 4.8 | 14.5 | 0.00 | 0.00 | 0.00 | 35 | 1008.1 |
| 20260505213542 | 12 | 239 | 8.0 | 12.9 | 0.00 | 0.00 | 0.00 | 35 | 1008.3 |
| 20260505213037 | 12 | 263 | 8.0 | 14.5 | 0.00 | 0.00 | 0.00 | 34 | 1008.4 |
| 20260505212534 | 12 | 214 | 8.0 | 9.7 | 0.00 | 0.00 | 0.00 | 35 | 1008.2 |
| 20260505212031 | 12 | 182 | 4.8 | 6.4 | 0.00 | 0.00 | 0.00 | 34 | 1008.2 |
| 20260505211529 | 12 | 264 | 6.4 | 12.9 | 0.00 | 0.00 | 0.00 | 34 | 1008.2 |
| 20260505211025 | 12 | 286 | 8.0 | 14.5 | 0.00 | 0.00 | 0.00 | 34 | 1008.2 |
| 20260505210522 | 13 | 288 | 11.3 | 16.1 | 0.00 | 0.00 | 0.00 | 33 | 1008.1 |
| 20260505210019 | 13 | 224 | 4.8 | 11.3 | 0.00 | 0.00 | 0.00 | 34 | 1008.2 |
| 20260505205517 | 13 | 214 | 11.3 | 16.1 | 0.00 | 0.00 | 0.00 | 34 | 1008.2 |
| 20260505205014 | 13 | 334 | 6.4 | 11.3 | 0.00 | 0.00 | 0.00 | 34 | 1008.4 |
| 20260505204512 | 13 | 293 | 12.9 | 16.1 | 0.00 | 0.00 | 0.00 | 33 | 1008.4 |
| 20260505204009 | 13 | 200 | 8.0 | 12.9 | 0.00 | 0.00 | 0.00 | 34 | 1008.3 |
| 20260505203505 | 13 | 298 | 11.3 | 16.1 | 0.00 | 0.00 | 0.00 | 34 | 1008.3 |
| 20260505203001 | 13 | 297 | 11.3 | 14.5 | 0.00 | 0.00 | 0.00 | 33 | 1008.3 |
| 20260505202458 | 13 | 263 | 6.4 | 9.7 | 0.00 | 0.00 | 0.00 | 34 | 1008.5 |
| 20260505201954 | 12 | 197 | 6.4 | 14.5 | 0.00 | 0.00 | 0.00 | 34 | 1008.5 |
| 20260505201451 | 12 | 329 | 11.3 | 20.9 | 0.00 | 0.00 | 0.00 | 32 | 1008.3 |
| 20260505200949 | 13 | 298 | 8.0 | 17.7 | 0.00 | 0.00 | 0.00 | 33 | 1008.5 |
| 20260505200447 | 12 | 205 | 8.0 | 14.5 | 0.00 | 0.00 | 0.00 | 33 | 1008.7 |
| 20260505195942 | 12 | 6 | 8.0 | 16.1 | 0.00 | 0.00 | 0.00 | 32 | 1008.7 |
| 20260505195439 | 12 | 196 | 6.4 | 14.5 | 0.00 | 0.00 | 0.00 | 33 | 1008.7 |
| 20260505194937 | 12 | 297 | 8.0 | 16.1 | 0.00 | 0.00 | 0.00 | 32 | 1008.5 |
| 20260505194434 | 12 | 210 | 6.4 | 11.3 | 0.00 | 0.00 | 0.00 | 32 | 1008.7 |
| 20260505193934 | 12 | 104 | 3.2 | 14.5 | 0.00 | 0.00 | 0.00 | 32 | 1008.7 |
| 20260505193432 | 12 | 231 | 11.3 | 17.7 | 0.00 | 0.00 | 0.00 | 31 | 1008.7 |
| 20260505192929 | 12 | 204 | 6.4 | 12.9 | 0.00 | 0.00 | 0.00 | 31 | 1008.7 |
| 20260505192427 | 13 | 277 | 4.8 | 12.9 | 0.00 | 0.00 | 0.00 | 31 | 1008.8 |
| 20260505191925 | 12 | 343 | 12.9 | 17.7 | 0.00 | 0.00 | 0.00 | 31 | 1008.6 |
| 20260505191423 | 12 | 251 | 6.4 | 16.1 | 0.00 | 0.00 | 0.00 | 31 | 1008.7 |
| 20260505190920 | 12 | 347 | 6.4 | 17.7 | 0.00 | 0.00 | 0.00 | 32 | 1008.7 |
| 20260505190415 | 13 | 252 | 8.0 | 17.7 | 0.00 | 0.00 | 0.00 | 29 | 1008.8 |
| 20260505185910 | 13 | 180 | 3.2 | 11.3 | 0.00 | 0.00 | 0.00 | 29 | 1008.9 |
| 20260505185408 | 13 | 195 | 9.7 | 20.9 | 0.00 | 0.00 | 0.00 | 30 | 1008.6 |
| 20260505184904 | 13 | 351 | 9.7 | 20.9 | 0.00 | 0.00 | 0.00 | 29 | 1008.8 |
| 20260505184401 | 13 | 170 | 14.5 | 16.1 | 0.00 | 0.00 | 0.00 | 30 | 1008.9 |
| 20260505183858 | 13 | 156 | 4.8 | 16.1 | 0.00 | 0.00 | 0.00 | 30 | 1008.7 |
| 20260505183355 | 13 | 252 | 6.4 | 14.5 | 0.00 | 0.00 | 0.00 | 34 | 1008.7 |
| 20260505182851 | 13 | 254 | 8.0 | 16.1 | 0.00 | 0.00 | 0.00 | 31 | 1008.8 |
| 20260505182348 | 13 | 335 | 11.3 | 16.1 | 0.00 | 0.00 | 0.00 | 31 | 1008.5 |
| 20260505181845 | 13 | 260 | 9.7 | 20.9 | 0.00 | 0.00 | 0.00 | 30 | 1008.5 |
| 20260505181342 | 13 | 233 | 4.8 | 12.9 | 0.00 | 0.00 | 0.00 | 32 | 1008.6 |
| 20260505180839 | 12 | 190 | 1.6 | 9.7 | 0.00 | 0.00 | 0.00 | 33 | 1008.4 |
| 20260505180335 | 13 | 7 | 17.7 | 20.9 | 0.00 | 0.00 | 0.00 | 30 | 1008.8 |
| 20260505175832 | 13 | 190 | 4.8 | 11.3 | 0.00 | 0.00 | 0.00 | 32 | 1008.5 |
| 20260505175328 | 13 | 184 | 4.8 | 12.9 | 0.00 | 0.00 | 0.00 | 30 | 1008.6 |
| 20260505174825 | 14 | 336 | 6.4 | 14.5 | 0.00 | 0.00 | 0.00 | 29 | 1008.7 |
| 20260505174322 | 13 | 305 | 6.4 | 9.7 | 0.00 | 0.00 | 0.00 | 32 | 1008.6 |
| 20260505173818 | 13 | 273 | 11.3 | 16.1 | 0.00 | 0.00 | 0.00 | 32 | 1008.6 |
| 20260505173314 | 12 | 258 | 6.4 | 14.5 | 0.00 | 0.00 | 0.00 | 32 | 1008.5 |
| 20260505172812 | 13 | 334 | 9.7 | 12.9 | 0.00 | 0.00 | 0.00 | 31 | 1008.5 |
| 20260505172310 | 13 | 299 | 9.7 | 16.1 | 0.00 | 0.00 | 0.00 | 32 | 1008.4 |
| 20260505171804 | 12 | 285 | 4.8 | 9.7 | 0.00 | 0.00 | 0.00 | 33 | 1008.3 |
| 20260505171301 | 13 | 300 | 8.0 | 20.9 | 0.00 | 0.00 | 0.00 | 35 | 1008.2 |
| 20260505170757 | 13 | 334 | 3.2 | 6.4 | 0.00 | 0.00 | 0.00 | 35 | 1008.3 |
| 20260505170255 | 13 | 325 | 11.3 | 20.9 | 0.00 | 0.00 | 0.00 | 33 | 1008.4 |
| 20260505165750 | 12 | 139 | 4.8 | 16.1 | 0.00 | 0.00 | 0.00 | 34 | 1008.2 |
| 20260505165246 | 12 | 232 | 6.4 | 20.9 | 0.00 | 0.00 | 0.00 | 34 | 1008.2 |
| 20260505164742 | 12 | 302 | 11.3 | 16.1 | 0.00 | 0.00 | 0.00 | 35 | 1008.3 |
| 20260505164239 | 12 | 144 | 3.2 | 12.9 | 0.00 | 0.00 | 0.00 | 37 | 1008.5 |
| 20260505163737 | 12 | 185 | 4.8 | 12.9 | 0.00 | 0.00 | 0.00 | 37 | 1008.6 |
| 20260505163236 | 12 | 283 | 9.7 | 14.5 | 0.00 | 0.00 | 0.00 | 40 | 1008.5 |
| 20260505162732 | 12 | 268 | 4.8 | 14.5 | 0.00 | 0.00 | 0.00 | 38 | 1008.7 |
| 20260505162229 | 11 | 300 | 6.4 | 11.3 | 0.00 | 0.00 | 0.00 | 39 | 1008.6 |
| 20260505161726 | 11 | 301 | 8.0 | 14.5 | 0.00 | 0.00 | 0.00 | 39 | 1008.7 |
| 20260505161224 | 11 | 57 | 3.2 | 11.3 | 0.00 | 0.00 | 0.00 | 39 | 1008.6 |
| 20260505160721 | 11 | 202 | 3.2 | 11.3 | 0.00 | 0.00 | 0.00 | 41 | 1008.4 |
| 20260505160219 | 11 | 295 | 6.4 | 16.1 | 0.00 | 0.00 | 0.00 | 40 | 1008.3 |
| 20260505153158 | 11 | 222 | 6.4 | 12.9 | 0.00 | 0.00 | 0.00 | 41 | 1008.1 |
| 20260505152655 | 11 | 283 | 11.3 | 14.5 | 0.00 | 0.00 | 0.00 | 38 | 1007.9 |
| 20260505152150 | 11 | 125 | 4.8 | 11.3 | 0.00 | 0.00 | 0.00 | 40 | 1007.9 |
| 20260505151646 | 11 | 302 | 6.4 | 12.9 | 0.00 | 0.00 | 0.00 | 39 | 1008.0 |
| 20260505151144 | 11 | 314 | 9.7 | 16.1 | 0.00 | 0.00 | 0.00 | 39 | 1008.1 |
| 20260505150639 | 11 | 304 | 9.7 | 16.1 | 0.00 | 0.00 | 0.00 | 37 | 1007.9 |
| 20260505150137 | 11 | 231 | 6.4 | 16.1 | 0.00 | 0.00 | 0.00 | 37 | 1008.3 |
| 20260505140605 | 10 | 168 | 3.2 | 9.7 | 0.00 | 0.00 | 0.00 | 50 | 1008.2 |
| 20260505125019 | 8 | 176 | 1.6 | 6.4 | 0.00 | 0.00 | 0.00 | 59 | 1008.5 |
| 20260505124515 | 8 | 151 | 1.6 | 3.2 | 0.00 | 0.00 | 0.00 | 61 | 1008.3 |
| 20260505124012 | 8 | 149 | 0.0 | 0.0 | 0.00 | 0.00 | 0.00 | 64 | 1008.1 |
| 20260505123508 | 8 | 163 | 0.0 | 0.0 | 0.00 | 0.00 | 0.00 | 64 | 1008.2 |
| 20260505123004 | 8 | 180 | 1.6 | 3.2 | 0.00 | 0.00 | 0.00 | 63 | 1008.3 |
| 20260505122502 | 8 | 170 | 0.0 | 1.6 | 0.00 | 0.00 | 0.00 | 63 | 1008.2 |
| 20260505121958 | 8 | 162 | 0.0 | 1.6 | 0.00 | 0.00 | 0.00 | 66 | 1008.1 |
| 20260505121455 | 7 | 207 | 1.6 | 1.6 | 0.00 | 0.00 | 0.00 | 67 | 1008.5 |
| 20260505120951 | 7 | 297 | 3.2 | 4.8 | 0.00 | 0.00 | 0.00 | 66 | 1008.2 |
| 20260505120448 | 8 | 161 | 0.0 | 0.0 | 0.00 | 0.00 | 0.00 | 66 | 1008.1 |
| 20260505115947 | 7 | 189 | 1.6 | 4.8 | 0.00 | 0.00 | 0.00 | 63 | 1008.2 |
| 20260505115443 | 7 | 144 | 0.0 | 1.6 | 0.00 | 0.00 | 0.00 | 64 | 1007.7 |
| 20260505114941 | 7 | 153 | 0.0 | 1.6 | 0.00 | 0.00 | 0.00 | 64 | 1007.7 |
| 20260505114432 | 7 | 148 | 0.0 | 1.6 | 0.00 | 0.00 | 0.00 | 65 | 1008.1 |
| 20260505113928 | 7 | 144 | 0.0 | 3.2 | 0.00 | 0.00 | 0.00 | 65 | 1008.4 |
| 20260505113425 | 7 | 156 | 3.2 | 4.8 | 0.00 | 0.00 | 0.00 | 65 | 1008.1 |
| 20260505112921 | 7 | 215 | 1.6 | 4.8 | 0.00 | 0.00 | 0.00 | 65 | 1007.4 |
| 20260505112419 | 7 | 292 | 4.8 | 6.4 | 0.00 | 0.00 | 0.00 | 67 | 1007.5 |
| 20260505111914 | 7 | 180 | 1.6 | 1.6 | 0.00 | 0.00 | 0.00 | 68 | 1007.3 |
| 20260505111409 | 7 | 163 | 0.0 | 0.0 | 0.00 | 0.00 | 0.00 | 66 | 1006.6 |
| 20260505110906 | 7 | 154 | 0.0 | 1.6 | 0.00 | 0.00 | 0.00 | 67 | 1006.6 |
| 20260505110403 | 7 | 160 | 0.0 | 1.6 | 0.00 | 0.00 | 0.00 | 67 | 1007.0 |
| 20260505101833 | 8 | 231 | 3.2 | 6.4 | 0.00 | 0.00 | 0.00 | 55 | 1007.2 |
| 20260505101328 | 8 | 268 | 4.8 | 11.3 | 0.00 | 0.00 | 0.00 | 54 | 1007.1 |
| 20260505100824 | 8 | 169 | 1.6 | 4.8 | 0.00 | 0.00 | 0.00 | 56 | 1006.4 |
| 20260505100321 | 8 | 288 | 8.0 | 12.9 | 0.00 | 0.00 | 0.00 | 55 | 1006.4 |
| 20260505095817 | 8 | 315 | 3.2 | 4.8 | 0.00 | 0.00 | 0.00 | 56 | 1005.6 |
| 20260505095315 | 8 | 13 | 3.2 | 9.7 | 0.00 | 0.00 | 0.00 | 55 | 1005.4 |
| 20260505094810 | 9 | 158 | 0.0 | 6.4 | 0.00 | 0.00 | 0.00 | 55 | 1005.2 |
| 20260505094308 | 9 | 156 | 1.6 | 4.8 | 0.00 | 0.00 | 0.00 | 55 | 1005.3 |
| 20260505093803 | 9 | 47 | 3.2 | 4.8 | 0.00 | 0.00 | 0.00 | 54 | 1005.3 |
| 20260505093301 | 9 | 123 | 1.6 | 4.8 | 0.00 | 0.00 | 0.00 | 53 | 1005.3 |
| 20260505092757 | 9 | 151 | 3.2 | 4.8 | 0.00 | 0.00 | 0.00 | 53 | 1005.5 |
| 20260505092256 | 10 | 177 | 1.6 | 6.4 | 0.00 | 0.00 | 0.00 | 53 | 1005.4 |
| 20260505091753 | 10 | 157 | 3.2 | 6.4 | 0.00 | 0.00 | 0.00 | 52 | 1005.4 |
| 20260505091251 | 10 | 284 | 3.2 | 6.4 | 0.00 | 0.00 | 0.00 | 52 | 1005.4 |
| 20260505090749 | 10 | 214 | 8.0 | 12.9 | 0.00 | 0.00 | 0.00 | 53 | 1005.5 |
| 20260505090246 | 10 | 186 | 6.4 | 11.3 | 0.00 | 0.00 | 0.00 | 53 | 1005.2 |
| 20260505085744 | 10 | 312 | 1.6 | 11.3 | 0.00 | 0.00 | 0.00 | 54 | 1005.2 |
| 20260505085242 | 10 | 315 | 8.0 | 12.9 | 0.00 | 0.00 | 0.00 | 54 | 1005.1 |
| 20260505084738 | 9 | 327 | 9.7 | 12.9 | 0.00 | 0.00 | 0.00 | 57 | 1004.8 |
| 20260505084238 | 10 | 52 | 6.4 | 9.7 | 0.00 | 0.00 | 0.00 | 57 | 1004.5 |
| 20260505083734 | 10 | 265 | 4.8 | 9.7 | 0.00 | 0.00 | 0.00 | 56 | 1004.7 |
| 20260505083231 | 10 | 229 | 6.4 | 14.5 | 0.00 | 0.00 | 0.00 | 55 | 1004.6 |
| 20260505082727 | 10 | 52 | 3.2 | 4.8 | 0.00 | 0.00 | 0.00 | 56 | 1004.5 |
| 20260505082224 | 10 | 163 | 4.8 | 6.4 | 0.00 | 0.00 | 0.00 | 56 | 1004.5 |
| 20260505081720 | 10 | 42 | 3.2 | 11.3 | 0.00 | 0.00 | 0.00 | 54 | 1004.3 |
| 20260505081218 | 10 | 5 | 3.2 | 12.9 | 0.00 | 0.00 | 0.00 | 55 | 1004.0 |
| 20260505080715 | 10 | 305 | 9.7 | 11.3 | 0.00 | 0.00 | 0.00 | 55 | 1004.1 |
| 20260505080210 | 10 | 272 | 6.4 | 11.3 | 0.00 | 0.00 | 0.00 | 55 | 1003.8 |
| 20260505075706 | 10 | 290 | 6.4 | 9.7 | 0.00 | 0.00 | 0.00 | 55 | 1003.6 |
| 20260505075203 | 11 | 175 | 1.6 | 9.7 | 0.00 | 0.00 | 0.00 | 55 | 1003.3 |
| 20260505074700 | 11 | 317 | 4.8 | 6.4 | 0.00 | 0.00 | 0.00 | 54 | 1003.5 |
| 20260505074157 | 11 | 278 | 4.8 | 6.4 | 0.00 | 0.00 | 0.00 | 52 | 1003.6 |
| 20260505073655 | 11 | 207 | 4.8 | 6.4 | 0.00 | 0.00 | 0.00 | 51 | 1003.5 |
| 20260505073153 | 11 | 227 | 1.6 | 9.7 | 0.00 | 0.00 | 0.00 | 51 | 1003.5 |
| 20260505072648 | 11 | 301 | 4.8 | 6.4 | 0.00 | 0.00 | 0.00 | 51 | 1003.4 |
| 20260505072145 | 11 | 241 | 3.2 | 4.8 | 0.00 | 0.00 | 0.00 | 52 | 1003.3 |
| 20260505071640 | 11 | 239 | 3.2 | 6.4 | 0.00 | 0.00 | 0.00 | 52 | 1003.1 |
| 20260505071139 | 11 | 143 | 3.2 | 9.7 | 0.00 | 0.00 | 0.00 | 52 | 1003.0 |
| 20260505070635 | 11 | 130 | 3.2 | 4.8 | 0.00 | 0.00 | 0.00 | 53 | 1003.0 |
| 20260505070132 | 11 | 290 | 6.4 | 9.7 | 0.00 | 0.00 | 0.00 | 53 | 1002.6 |
| 20260505065628 | 11 | 13 | 1.6 | 11.3 | 0.00 | 0.00 | 0.00 | 53 | 1002.7 |
| 20260505065124 | 11 | 167 | 1.6 | 6.4 | 0.00 | 0.00 | 0.00 | 52 | 1002.5 |
| 20260505064621 | 11 | 175 | 3.2 | 9.7 | 0.00 | 0.00 | 0.00 | 51 | 1002.5 |
| 20260505064120 | 11 | 296 | 6.4 | 6.4 | 0.00 | 0.00 | 0.00 | 51 | 1002.3 |
| 20260505063617 | 11 | 313 | 3.2 | 4.8 | 0.00 | 0.00 | 0.00 | 50 | 1002.3 |
| 20260505063113 | 12 | 267 | 4.8 | 6.4 | 0.00 | 0.00 | 0.00 | 50 | 1002.3 |
| 20260505062609 | 12 | 284 | 6.4 | 11.3 | 0.00 | 0.00 | 0.00 | 49 | 1002.1 |
| 20260505062107 | 11 | 290 | 6.4 | 9.7 | 0.00 | 0.00 | 0.00 | 51 | 1002.3 |
| 20260505061604 | 11 | 262 | 6.4 | 9.7 | 0.00 | 0.00 | 0.00 | 53 | 1002.1 |
| 20260505061102 | 12 | 271 | 4.8 | 11.3 | 0.00 | 0.00 | 0.00 | 54 | 1002.2 |
| 20260505060559 | 12 | 48 | 3.2 | 11.3 | 0.00 | 0.00 | 0.00 | 53 | 1002.3 |
| 20260505060056 | 12 | 276 | 4.8 | 6.4 | 0.00 | 0.00 | 0.00 | 51 | 1002.3 |
| 20260505055551 | 12 | 121 | 3.2 | 6.4 | 0.00 | 0.00 | 0.00 | 49 | 1002.2 |
| 20260505055048 | 12 | 251 | 6.4 | 6.4 | 0.00 | 0.00 | 0.00 | 48 | 1002.0 |
| 20260505054545 | 12 | 301 | 4.8 | 6.4 | 0.00 | 0.00 | 0.00 | 48 | 1002.1 |
| 20260505054043 | 12 | 296 | 4.8 | 6.4 | 0.00 | 0.00 | 0.00 | 48 | 1002.0 |
| 20260505053540 | 12 | 164 | 1.6 | 4.8 | 0.00 | 0.00 | 0.00 | 49 | 1002.0 |
| 20260505053037 | 12 | 330 | 6.4 | 11.3 | 0.00 | 0.00 | 0.00 | 48 | 1002.0 |
| 20260505052534 | 12 | 284 | 4.8 | 6.4 | 0.00 | 0.00 | 0.00 | 48 | 1002.0 |
| 20260505052031 | 12 | 293 | 3.2 | 4.8 | 0.00 | 0.00 | 0.00 | 49 | 1001.8 |
| 20260505051528 | 12 | 322 | 3.2 | 6.4 | 0.00 | 0.00 | 0.00 | 49 | 1001.8 |
| 20260505051026 | 12 | 278 | 1.6 | 4.8 | 0.00 | 0.00 | 0.00 | 48 | 1001.9 |
| 20260505050524 | 12 | 242 | 3.2 | 4.8 | 0.00 | 0.00 | 0.00 | 49 | 1001.8 |
| 20260505041451 | 15 | 300 | 6.4 | 9.7 | 0.00 | 0.05 | 0.05 | 43 | 1001.4 |
| 20260505040949 | 15 | 221 | 6.4 | 11.3 | 0.00 | 0.05 | 0.05 | 42 | 1001.2 |
| 20260505040446 | 15 | 304 | 4.8 | 12.9 | 0.00 | 0.05 | 0.05 | 42 | 1001.1 |
| 20260505035943 | 15 | 154 | 8.0 | 11.3 | 0.00 | 0.05 | 0.05 | 43 | 1001.1 |
| 20260505035439 | 15 | 161 | 1.6 | 6.4 | 0.00 | 0.05 | 0.05 | 43 | 1001.2 |
| 20260505034936 | 15 | 291 | 1.6 | 11.3 | 0.00 | 0.05 | 0.05 | 44 | 1001.3 |
| 20260505034432 | 15 | 154 | 1.6 | 9.7 | 0.00 | 0.05 | 0.05 | 45 | 1001.1 |
| 20260505033930 | 16 | 177 | 3.2 | 6.4 | 0.00 | 0.05 | 0.05 | 44 | 1001.1 |
| 20260505033426 | 16 | 195 | 3.2 | 6.4 | 0.00 | 0.05 | 0.05 | 44 | 1000.9 |
| 20260505032925 | 16 | 293 | 9.7 | 14.5 | 0.00 | 0.05 | 0.05 | 43 | 1000.7 |
| 20260505032422 | 16 | 234 | 4.8 | 14.5 | 0.00 | 0.05 | 0.05 | 44 | 1000.5 |
| 20260505031918 | 16 | 236 | 9.7 | 14.5 | 0.00 | 0.05 | 0.05 | 43 | 1000.5 |
| 20260505031415 | 16 | 241 | 6.4 | 11.3 | 0.00 | 0.05 | 0.05 | 43 | 1000.5 |
| 20260505030912 | 17 | 200 | 3.2 | 14.5 | 0.00 | 0.05 | 0.05 | 43 | 1000.4 |
| 20260505030408 | 17 | 328 | 4.8 | 12.9 | 0.00 | 0.05 | 0.05 | 42 | 1000.3 |
| 20260505025903 | 17 | 326 | 6.4 | 22.5 | 0.00 | 0.05 | 0.05 | 41 | 1000.3 |
| 20260505025401 | 17 | 21 | 9.7 | 17.7 | 0.00 | 0.05 | 0.05 | 41 | 1000.6 |
| 20260505024900 | 17 | 179 | 4.8 | 12.9 | 0.00 | 0.05 | 0.05 | 47 | 1000.5 |
| 20260505024357 | 17 | 135 | 3.2 | 6.4 | 0.00 | 0.05 | 0.05 | 55 | 1000.6 |
| 20260505023854 | 17 | 194 | 1.6 | 6.4 | 0.00 | 0.05 | 0.05 | 58 | 1000.5 |
| 20260505023351 | 17 | 222 | 3.2 | 6.4 | 0.00 | 0.05 | 0.05 | 60 | 1000.3 |
| 20260505022848 | 17 | 240 | 3.2 | 9.7 | 0.00 | 0.05 | 0.05 | 61 | 1000.3 |
| 20260505022345 | 17 | 163 | 3.2 | 9.7 | 0.00 | 0.05 | 0.05 | 61 | 999.9 |
| 20260505021842 | 18 | 288 | 4.8 | 6.4 | 0.00 | 0.05 | 0.05 | 60 | 999.8 |
| 20260505021338 | 18 | 322 | 6.4 | 12.9 | 0.00 | 0.05 | 0.05 | 59 | 999.7 |
| 20260505020834 | 18 | 219 | 6.4 | 11.3 | 0.00 | 0.05 | 0.05 | 59 | 999.4 |
| 20260505020330 | 18 | 162 | 1.6 | 12.9 | 0.00 | 0.05 | 0.05 | 59 | 999.5 |
| 20260505015827 | 18 | 216 | 8.0 | 12.9 | 0.00 | 0.05 | 0.05 | 58 | 999.5 |